createdAt,value
2023-05-13T00:29:24.953Z,101292.94
2023-05-13T00:59:28.021Z,101296.56
2023-05-13T01:29:31.205Z,101319.98
2023-05-13T01:59:34.028Z,101337.89
2023-05-13T02:29:37.684Z,101346.92
2023-05-13T02:59:40.579Z,101352.34
2023-05-13T03:29:44.407Z,101356.77
2023-05-13T03:59:47.266Z,101373.25
2023-05-13T04:29:50.624Z,101388.78
2023-05-13T04:59:53.458Z,101393.22
2023-05-13T05:29:57.198Z,101400.14
2023-05-13T06:00:00.015Z,101404.14
2023-05-13T06:30:03.332Z,101387.30
2023-05-13T07:00:06.542Z,101389.08
2023-05-13T07:30:09.521Z,101381.73
2023-05-13T08:00:13.030Z,101354.91
2023-05-13T08:30:15.998Z,101356.52
2023-05-13T09:00:21.445Z,101360.88
2023-05-13T09:30:25.206Z,101329.95
2023-05-13T10:00:32.822Z,101322.09
2023-05-13T10:30:36.870Z,101318.63
2023-05-13T11:00:40.564Z,101309.69
2023-05-13T11:30:43.696Z,101300.20
2023-05-13T12:00:47.019Z,101313.92
2023-05-13T12:30:50.173Z,101310.45
2023-05-13T13:00:53.918Z,101308.64
2023-05-13T13:30:57.134Z,101298.89
2023-05-13T14:01:00.600Z,101274.00
2023-05-13T14:31:03.895Z,101261.06
2023-05-13T15:01:07.058Z,101254.24
2023-05-13T15:31:10.172Z,101243.28
2023-05-13T16:01:13.938Z,101209.32
2023-05-13T16:31:17.215Z,101197.96
2023-05-13T17:01:20.741Z,101190.03
2023-05-13T17:31:24.103Z,101191.55
2023-05-13T18:01:27.700Z,101219.27
2023-05-13T18:31:32.721Z,101211.95
2023-05-13T19:01:35.953Z,101238.87
2023-05-13T19:31:39.188Z,101257.55
2023-05-13T20:01:42.809Z,101278.46
2023-05-13T20:31:46.096Z,101283.79
2023-05-13T21:01:49.100Z,101269.58
2023-05-13T21:31:52.990Z,101275.04
2023-05-13T22:01:56.097Z,101286.34
2023-05-13T22:31:59.809Z,101271.34
2023-05-13T23:02:03.175Z,101283.72
2023-05-13T23:32:07.109Z,101270.91
